Startpagina
METAR-TAF:

METAR-TAF

Vliegvelden :

Dublin Airport

Dublin, Ierland

breedte: 53-26N, lengte: 006-15W, hoogte: 68 m

Actueel weer

Dit bericht is 11 minuten geleden gemaakt, om 21:00 UTC
Wind 8 kt uit het westen
Temperatuur 19°C
Vochtigheid 68%
Druk 1016 hPa
Zicht 10 km of meer
Weinig wolken op 2500 ft
Verspreide wolken op 3000 ft
Gebroken wolken op 4500 ft

METAR: EIDW 212100Z 27008KT 9999 FEW025 SCT030 BKN045 19/13 Q1016 NOSIG

Tijdstip: 22:11 (21:11 UTC)

Verwachting

Dit bericht is 4 uur en het 11 minuten geleden gemaakt, om 17:00 UTC
Verwachting geldig van 21 om 18 UTC tot 22 om 18 UTC
Wind 10 kt uit het westnoordwesten
Zicht 10 km of meer
Verspreide wolken op 3000 ft
Kans 30% :
Tijdelijke
van 22 om 03 UTC tot 22 om 09 UTC
Gebroken wolken op 1000 ft
Wijzigt naar
van 22 om 05 UTC tot 22 om 08 UTC
Wind 10 kt uit het westen

TAF: EIDW 211700Z 2118/2218 29010KT 9999 SCT030 PROB30 TEMPO 2203/2209 BKN010 BECMG 2205/2208 26010KT

Waarnemingen en weersverwachtingen van meer dan 4000 vliegvelden (METAR en TAF).

De beschikbare stations zijn de gele en rode punten op de kaart.

Ga met uw muis naar het station om de naam te zien.

Klik dan om waarnemingen en weersverwachtingen te zien.

kaart wijzigen: klik op de groene knoppen met een zwart kruis om in te zoomen, op de groene knop met een streepje om uit te zoomen of op de groene pijlen voor aangrenzende kaarten.


METAR-TAF: